createdAt,value
2023-02-05T00:04:15.538Z,4.63
2023-02-05T00:09:18.562Z,4.30
2023-02-05T00:14:22.647Z,4.07
2023-02-05T00:19:43.057Z,3.78
2023-02-05T00:24:46.427Z,4.10
2023-02-05T00:29:49.438Z,4.67
2023-02-05T00:34:52.496Z,5.07
2023-02-05T00:39:55.551Z,3.17
2023-02-05T00:44:58.387Z,3.47
2023-02-05T00:50:01.662Z,3.50
2023-02-05T00:55:05.276Z,3.23
2023-02-05T01:00:09.278Z,3.27
2023-02-05T01:05:12.763Z,5.10
2023-02-05T01:10:16.418Z,4.83
2023-02-05T01:15:20.060Z,3.43
2023-02-05T01:20:22.863Z,4.30
2023-02-05T01:25:25.886Z,3.17
2023-02-05T01:30:28.678Z,6.57
2023-02-05T01:35:32.637Z,3.43
2023-02-05T01:40:35.890Z,3.80
2023-02-05T01:45:50.876Z,5.43
2023-02-05T01:50:59.685Z,4.10
2023-02-05T01:56:20.117Z,4.07
2023-02-05T02:01:24.767Z,4.03
2023-02-05T02:06:27.747Z,3.40
2023-02-05T02:11:36.647Z,4.03
2023-02-05T02:16:40.767Z,3.83
2023-02-05T02:22:28.008Z,3.77
2023-02-05T02:27:45.941Z,4.33
2023-02-05T02:33:21.605Z,5.57
2023-02-05T02:38:34.264Z,3.90
2023-02-05T02:43:54.756Z,4.70
2023-02-05T02:49:05.293Z,3.83
2023-02-05T02:54:14.056Z,5.63
2023-02-05T02:59:28.659Z,3.50
2023-02-05T03:04:39.081Z,4.87
2023-02-05T03:09:56.893Z,4.90
2023-02-05T03:15:00.580Z,3.07
2023-02-05T03:20:19.338Z,2.93
2023-02-05T03:25:25.276Z,2.80
2023-02-05T03:30:57.245Z,5.27
2023-02-05T03:36:49.052Z,6.18
2023-02-05T03:42:06.955Z,2.77
2023-02-05T03:47:19.432Z,2.93
2023-02-05T03:52:55.387Z,7.20
2023-02-05T03:58:10.641Z,3.20
2023-02-05T04:03:15.410Z,4.20
2023-02-05T04:08:18.398Z,3.97
2023-02-05T04:13:21.359Z,3.03
2023-02-05T04:18:24.487Z,5.43
2023-02-05T04:23:27.472Z,4.13
2023-02-05T04:28:30.921Z,3.60
2023-02-05T04:33:33.891Z,4.67
2023-02-05T04:38:37.018Z,5.00
2023-02-05T04:43:39.966Z,4.53
2023-02-05T04:48:42.980Z,3.53
2023-02-05T04:53:45.687Z,4.80
2023-02-05T04:58:48.559Z,4.27
2023-02-05T05:03:51.763Z,15.40
2023-02-05T05:08:54.774Z,5.10
2023-02-05T05:13:58.203Z,4.20
2023-02-05T05:19:01.206Z,5.00
2023-02-05T05:24:04.516Z,6.37
2023-02-05T05:29:07.670Z,5.30
2023-02-05T05:34:10.689Z,3.57
2023-02-05T05:39:33.467Z,6.13
2023-02-05T05:44:36.270Z,5.47
2023-02-05T05:49:39.225Z,5.37
2023-02-05T05:54:42.272Z,4.13
2023-02-05T05:59:45.263Z,6.90
2023-02-05T06:04:48.450Z,23.10
2023-02-05T06:09:51.501Z,5.77
2023-02-05T06:14:54.223Z,5.77
2023-02-05T06:19:57.255Z,6.73
2023-02-05T06:25:00.255Z,10.73
2023-02-05T06:30:04.455Z,15.17
2023-02-05T06:35:07.935Z,7.73
2023-02-05T06:40:11.521Z,6.63
2023-02-05T06:45:14.948Z,5.73
2023-02-05T06:50:18.028Z,7.70
2023-02-05T06:55:21.418Z,6.50
2023-02-05T07:00:24.555Z,7.70
2023-02-05T07:05:27.363Z,14.23
2023-02-05T07:10:30.649Z,6.43
2023-02-05T07:15:37.707Z,9.67
2023-02-05T07:20:40.727Z,12.20
2023-02-05T07:25:43.595Z,6.13
2023-02-05T07:30:47.901Z,7.77
2023-02-05T07:35:50.641Z,6.67
2023-02-05T07:40:53.571Z,7.70
2023-02-05T07:46:02.469Z,7.23
2023-02-05T07:51:07.054Z,4.40
2023-02-05T07:56:10.064Z,4.60
2023-02-05T08:01:13.122Z,5.93
2023-02-05T08:06:16.697Z,5.77
2023-02-05T08:11:20.075Z,5.23
2023-02-05T08:16:22.865Z,4.90
2023-02-05T08:21:26.006Z,4.23
2023-02-05T08:26:28.904Z,5.47
2023-02-05T08:31:32.683Z,5.30
2023-02-05T08:36:35.794Z,3.90
2023-02-05T08:41:38.932Z,4.57
2023-02-05T08:46:49.920Z,14.33
2023-02-05T08:56:56.412Z,4.93
2023-02-05T09:01:59.631Z,2.90
2023-02-05T09:07:02.381Z,4.40
2023-02-05T09:12:06.085Z,13.00
2023-02-05T09:17:10.980Z,10.07
2023-02-05T09:22:14.008Z,6.83
2023-02-05T09:27:17.040Z,5.43
2023-02-05T09:32:20.033Z,4.73
2023-02-05T09:37:22.892Z,4.47
2023-02-05T09:42:52.029Z,3.67
2023-02-05T09:48:04.794Z,7.67
2023-02-05T09:53:13.481Z,9.30
2023-02-05T09:58:26.673Z,7.30
2023-02-05T10:03:42.975Z,15.80
2023-02-05T10:08:48.778Z,29.27
2023-02-05T10:14:17.286Z,11.93
2023-02-05T10:20:03.272Z,8.67
2023-02-05T10:25:09.585Z,12.07
2023-02-05T10:30:52.757Z,25.47
2023-02-05T10:36:06.861Z,7.77
2023-02-05T10:41:45.641Z,7.60
2023-02-05T10:46:54.089Z,4.23
2023-02-05T10:51:56.958Z,15.63
2023-02-05T10:57:00.876Z,4.60
2023-02-05T11:02:10.172Z,3.23
2023-02-05T11:07:26.331Z,18.77
2023-02-05T11:12:32.951Z,8.47
2023-02-05T11:17:38.031Z,5.40
2023-02-05T11:22:40.893Z,6.57
2023-02-05T11:27:56.864Z,24.63
2023-02-05T11:33:27.602Z,29.40
2023-02-05T11:38:57.193Z,4.57
2023-02-05T11:44:02.316Z,4.70
2023-02-05T11:49:05.711Z,2.33
2023-02-05T11:54:27.158Z,19.03
2023-02-05T11:59:32.334Z,3.77
2023-02-05T12:04:47.216Z,3.23
2023-02-05T12:09:53.069Z,1.80
2023-02-05T12:15:14.407Z,4.40
2023-02-05T12:20:23.374Z,2.20
2023-02-05T12:25:53.292Z,1.73
2023-02-05T12:31:12.147Z,2.57
2023-02-05T12:37:01.853Z,2.13
2023-02-05T12:42:11.973Z,3.13
2023-02-05T12:47:32.776Z,3.30
2023-02-05T12:53:27.654Z,2.00
2023-02-05T12:58:42.442Z,2.17
2023-02-05T13:03:51.582Z,2.20
2023-02-05T13:43:46.000Z,14.17
2023-02-05T13:55:24.101Z,2.15
2023-02-05T14:00:28.381Z,13.40
2023-02-05T14:05:39.740Z,2.97
2023-02-05T14:10:45.670Z,3.00
2023-02-05T14:15:50.155Z,6.43
2023-02-05T14:20:53.090Z,4.03
2023-02-05T14:26:07.381Z,4.00
2023-02-05T14:31:47.794Z,3.23
2023-02-05T14:36:51.498Z,6.03
2023-02-05T14:41:59.270Z,3.70
2023-02-05T14:47:20.061Z,5.33
2023-02-05T14:52:22.865Z,7.87
2023-02-05T14:58:03.179Z,8.73
2023-02-05T15:03:06.189Z,18.20
2023-02-05T15:08:36.692Z,10.53
2023-02-05T15:13:40.396Z,7.80
2023-02-05T15:19:06.199Z,9.00
2023-02-05T15:24:24.124Z,11.63
2023-02-05T15:29:41.617Z,10.97
2023-02-05T15:34:51.210Z,12.87
2023-02-05T15:39:58.357Z,8.50
2023-02-05T15:45:45.209Z,6.17
2023-02-05T15:50:56.265Z,6.27
2023-02-05T15:56:13.077Z,17.50
2023-02-05T16:01:29.649Z,36.77
2023-02-05T16:06:37.006Z,22.47
2023-02-05T16:11:43.084Z,17.60
2023-02-05T16:17:04.495Z,30.00
2023-02-05T16:22:32.340Z,18.50
2023-02-05T16:27:46.386Z,15.37
2023-02-05T16:32:53.497Z,17.60
2023-02-05T16:37:57.544Z,16.03
2023-02-05T16:43:05.806Z,19.67
2023-02-05T16:48:27.156Z,14.17
2023-02-05T16:53:37.035Z,18.07
2023-02-05T16:58:53.870Z,30.57
2023-02-05T17:03:57.542Z,20.20
2023-02-05T17:09:01.134Z,18.90
2023-02-05T17:14:35.742Z,18.53
2023-02-05T17:19:38.791Z,34.13
2023-02-05T17:24:48.984Z,19.67
2023-02-05T17:29:52.081Z,14.37
2023-02-05T17:34:55.433Z,16.57
2023-02-05T17:39:58.211Z,24.93
2023-02-05T17:45:02.213Z,22.50
2023-02-05T17:50:05.720Z,12.50
2023-02-05T17:55:14.361Z,7.47
2023-02-05T18:00:27.613Z,7.50
2023-02-05T18:05:30.933Z,10.77
2023-02-05T18:10:34.178Z,12.73
2023-02-05T18:15:37.481Z,23.10
2023-02-05T18:20:40.418Z,16.43
2023-02-05T18:25:43.181Z,18.47
2023-02-05T18:30:46.391Z,13.23
2023-02-05T18:35:49.370Z,16.20
2023-02-05T18:40:52.652Z,10.80
2023-02-05T18:45:55.982Z,10.90
2023-02-05T18:50:58.878Z,11.80
2023-02-05T18:56:20.434Z,11.30
2023-02-05T19:01:23.592Z,13.60
2023-02-05T19:06:26.613Z,11.70
2023-02-05T19:11:30.974Z,14.23
2023-02-05T19:16:36.026Z,15.57
2023-02-05T19:21:39.154Z,20.33
2023-02-05T19:26:44.202Z,74.80
2023-02-05T19:31:48.198Z,37.87
2023-02-05T19:36:51.418Z,44.73
2023-02-05T19:41:56.086Z,26.03
2023-02-05T19:46:59.131Z,22.00
2023-02-05T19:52:02.078Z,51.27
2023-02-05T19:57:04.980Z,29.47
2023-02-05T20:02:12.759Z,27.37
2023-02-05T20:07:16.060Z,23.80
2023-02-05T20:12:19.276Z,19.50
2023-02-05T20:17:47.032Z,17.60
2023-02-05T20:23:08.798Z,24.27
2023-02-05T20:28:12.209Z,13.75
2023-02-05T20:33:15.340Z,20.67
2023-02-05T20:38:18.296Z,24.87
2023-02-05T20:43:21.787Z,22.60
2023-02-05T20:48:24.747Z,15.93
2023-02-05T20:53:27.791Z,12.87
2023-02-05T20:58:31.722Z,9.83
2023-02-05T21:03:36.884Z,12.83
2023-02-05T21:08:41.538Z,14.33
2023-02-05T21:13:46.625Z,13.33
2023-02-05T21:18:51.274Z,22.73
2023-02-05T21:24:01.320Z,26.03
2023-02-05T21:29:10.191Z,38.77
2023-02-05T21:34:27.177Z,32.40
2023-02-05T21:39:30.173Z,32.83
2023-02-05T21:44:33.121Z,43.37
2023-02-05T21:49:35.904Z,61.77
2023-02-05T21:54:39.183Z,52.77
2023-02-05T21:59:42.117Z,34.77
2023-02-05T22:04:45.102Z,34.03
2023-02-05T22:09:48.182Z,25.30
2023-02-05T22:14:51.087Z,38.33
2023-02-05T22:19:54.058Z,24.77
2023-02-05T22:24:57.673Z,20.83
2023-02-05T22:30:00.653Z,18.30
2023-02-05T22:35:04.657Z,24.50
2023-02-05T22:40:08.474Z,16.87
2023-02-05T22:45:11.815Z,16.70
2023-02-05T22:50:15.396Z,13.57
2023-02-05T22:55:18.618Z,10.53
2023-02-05T23:00:21.360Z,12.80
2023-02-05T23:05:26.869Z,15.00
2023-02-05T23:10:29.833Z,11.30
2023-02-05T23:15:33.291Z,11.13
2023-02-05T23:20:36.426Z,12.00
2023-02-05T23:25:39.588Z,13.20
2023-02-05T23:30:42.813Z,37.33
2023-02-05T23:35:45.893Z,32.30
2023-02-05T23:40:49.007Z,19.20
2023-02-05T23:45:54.155Z,19.33
2023-02-05T23:50:57.119Z,19.97
2023-02-05T23:56:00.902Z,19.10
